createdAt,value
2018-12-18T00:01:45.887Z,2.80
2018-12-18T00:04:12.595Z,2.80
2018-12-18T00:06:39.290Z,2.80
2018-12-18T00:09:06.257Z,2.70
2018-12-18T00:11:33.098Z,2.70
2018-12-18T00:13:59.802Z,2.70
2018-12-18T00:16:26.495Z,2.80
2018-12-18T00:18:53.195Z,2.70
2018-12-18T00:21:19.898Z,2.70
2018-12-18T00:23:46.590Z,2.70
2018-12-18T00:26:13.296Z,2.70
2018-12-18T00:28:40.059Z,2.70
2018-12-18T00:31:06.874Z,2.70
2018-12-18T00:33:33.574Z,2.70
2018-12-18T00:36:00.271Z,2.80
2018-12-18T00:38:26.970Z,2.70
2018-12-18T00:40:53.671Z,2.70
2018-12-18T00:43:27.513Z,2.70
2018-12-18T00:45:54.438Z,2.60
2018-12-18T00:48:21.142Z,2.60
2018-12-18T00:50:47.846Z,2.60
2018-12-18T00:53:14.539Z,2.60
2018-12-18T00:55:41.247Z,2.60
2018-12-18T00:58:07.934Z,2.50
2018-12-18T01:00:34.629Z,2.50
2018-12-18T01:03:01.313Z,2.60
2018-12-18T01:05:28.018Z,2.60
2018-12-18T01:07:54.722Z,2.60
2018-12-18T01:10:21.443Z,2.60
2018-12-18T01:12:48.139Z,2.60
2018-12-18T01:15:14.855Z,2.60
2018-12-18T01:17:41.555Z,2.70
2018-12-18T01:20:08.252Z,2.70
2018-12-18T01:22:35.083Z,2.70
2018-12-18T01:25:01.774Z,2.70
2018-12-18T01:27:28.470Z,2.70
2018-12-18T01:29:55.168Z,2.70
2018-12-18T01:32:21.986Z,2.70
2018-12-18T01:34:48.687Z,2.70
2018-12-18T01:37:15.398Z,2.60
2018-12-18T01:39:42.090Z,2.50
2018-12-18T01:42:08.794Z,2.50
2018-12-18T01:44:35.487Z,2.40
2018-12-18T01:47:02.200Z,2.40
2018-12-18T01:49:28.890Z,2.40
2018-12-18T01:51:55.601Z,2.40
2018-12-18T01:54:22.291Z,2.40
2018-12-18T01:56:48.998Z,2.40
2018-12-18T01:59:15.690Z,2.30
2018-12-18T02:01:42.400Z,2.30
2018-12-18T02:04:09.109Z,2.20
2018-12-18T02:06:36.017Z,2.20
2018-12-18T02:09:04.200Z,2.20
2018-12-18T02:11:30.907Z,2.10
2018-12-18T02:13:57.598Z,2.10
2018-12-18T02:16:24.318Z,2.10
2018-12-18T02:18:51.077Z,2.00
2018-12-18T02:21:17.834Z,2.00
2018-12-18T02:23:45.258Z,2.00
2018-12-18T02:26:11.960Z,2.00
2018-12-18T02:28:38.664Z,2.00
2018-12-18T02:31:05.356Z,2.00
2018-12-18T02:33:32.051Z,2.00
2018-12-18T02:35:58.754Z,2.00
2018-12-18T02:38:25.467Z,2.00
2018-12-18T02:40:52.163Z,1.90
2018-12-18T02:43:18.866Z,1.90
2018-12-18T02:45:45.557Z,1.90
2018-12-18T02:48:12.254Z,1.90
2018-12-18T02:50:38.949Z,2.00
2018-12-18T02:53:05.646Z,1.90
2018-12-18T02:55:32.335Z,2.00
2018-12-18T02:57:59.042Z,2.00
2018-12-18T03:00:25.734Z,2.10
2018-12-18T03:02:52.543Z,2.10
2018-12-18T03:05:19.239Z,2.10
2018-12-18T03:07:46.274Z,2.10
2018-12-18T03:10:12.984Z,2.10
2018-12-18T03:12:39.807Z,2.10
2018-12-18T03:15:06.499Z,2.00
2018-12-18T03:17:33.205Z,2.00
2018-12-18T03:19:59.895Z,1.90
2018-12-18T03:22:26.603Z,1.80
2018-12-18T03:24:53.295Z,1.80
2018-12-18T03:27:20.024Z,1.80
2018-12-18T03:29:46.739Z,1.80
2018-12-18T03:32:17.468Z,1.80
2018-12-18T03:34:44.283Z,1.80
2018-12-18T03:37:11.131Z,1.80
2018-12-18T03:39:37.831Z,1.80
2018-12-18T03:42:04.523Z,1.70
2018-12-18T03:44:31.251Z,1.70
2018-12-18T03:46:58.047Z,1.70
2018-12-18T03:49:24.750Z,1.70
2018-12-18T03:51:51.442Z,1.60
2018-12-18T03:54:18.143Z,1.70
2018-12-18T03:56:44.839Z,1.60
2018-12-18T03:59:11.543Z,1.60
2018-12-18T04:01:38.242Z,1.50
2018-12-18T04:04:04.957Z,1.50
2018-12-18T04:06:31.673Z,1.40
2018-12-18T04:08:58.405Z,1.30
2018-12-18T04:11:25.227Z,1.30
2018-12-18T04:13:51.939Z,1.30
2018-12-18T04:16:18.647Z,1.30
2018-12-18T04:18:45.350Z,1.30
2018-12-18T04:21:12.047Z,1.30
2018-12-18T04:23:38.772Z,1.30
2018-12-18T04:26:05.463Z,1.30
2018-12-18T04:28:32.171Z,1.40
2018-12-18T04:30:58.866Z,1.40
2018-12-18T04:33:25.571Z,1.40
2018-12-18T04:35:52.274Z,1.40
2018-12-18T04:38:18.979Z,1.40
2018-12-18T04:40:45.686Z,1.40
2018-12-18T04:43:12.387Z,1.40
2018-12-18T04:45:39.078Z,1.30
2018-12-18T04:48:05.778Z,1.40
2018-12-18T04:50:32.479Z,1.30
2018-12-18T04:52:59.177Z,1.30
2018-12-18T04:55:25.880Z,1.40
2018-12-18T04:57:52.573Z,1.30
2018-12-18T05:00:19.286Z,1.40
2018-12-18T05:02:45.978Z,1.30
2018-12-18T05:05:12.678Z,1.30
2018-12-18T05:07:39.378Z,1.30
2018-12-18T05:10:06.083Z,1.30
2018-12-18T05:12:32.774Z,1.30
2018-12-18T05:14:59.482Z,1.20
2018-12-18T05:17:26.306Z,1.20
2018-12-18T05:19:53.013Z,1.20
2018-12-18T05:22:19.745Z,1.20
2018-12-18T05:24:46.451Z,1.10
2018-12-18T05:27:13.158Z,1.10
2018-12-18T05:29:39.867Z,1.10
2018-12-18T05:32:06.563Z,1.10
2018-12-18T05:34:33.271Z,1.10
2018-12-18T05:36:59.971Z,1.00
2018-12-18T05:39:26.670Z,1.00
2018-12-18T05:42:00.342Z,1.00
2018-12-18T05:44:27.030Z,1.00
2018-12-18T05:46:53.734Z,1.00
2018-12-18T05:49:20.430Z,1.00
2018-12-18T05:51:47.130Z,1.00
2018-12-18T05:54:13.826Z,1.00
2018-12-18T05:56:40.523Z,1.00
2018-12-18T05:59:07.226Z,0.90
2018-12-18T06:01:33.935Z,0.90
2018-12-18T06:04:00.626Z,0.90
2018-12-18T06:06:27.334Z,0.90
2018-12-18T06:08:54.039Z,0.90
2018-12-18T06:11:20.758Z,0.90
2018-12-18T06:13:47.451Z,0.90
2018-12-18T06:16:14.154Z,0.90
2018-12-18T06:18:40.854Z,0.90
2018-12-18T06:21:07.566Z,0.90
2018-12-18T06:23:34.258Z,0.90
2018-12-18T06:26:00.962Z,0.90
2018-12-18T06:28:27.659Z,0.90
2018-12-18T06:30:54.362Z,0.90
2018-12-18T06:33:21.054Z,1.00
2018-12-18T06:35:47.764Z,1.00
2018-12-18T06:38:14.455Z,1.00
2018-12-18T06:40:41.170Z,1.00
2018-12-18T06:43:07.867Z,1.10
2018-12-18T06:45:34.570Z,1.10
2018-12-18T06:48:01.262Z,1.20
2018-12-18T06:50:27.993Z,1.20
2018-12-18T06:52:54.686Z,1.20
2018-12-18T06:55:21.379Z,1.20
2018-12-18T06:57:48.078Z,1.20
2018-12-18T07:00:14.778Z,1.10
2018-12-18T07:02:41.479Z,1.10
2018-12-18T07:05:08.177Z,1.10
2018-12-18T07:07:34.913Z,1.20
2018-12-18T07:10:01.606Z,1.20
2018-12-18T07:12:28.315Z,1.20
2018-12-18T07:14:55.011Z,1.20
2018-12-18T07:17:21.719Z,1.20
2018-12-18T07:19:48.417Z,1.20
2018-12-18T07:22:15.132Z,1.20
2018-12-18T07:24:41.835Z,1.20
2018-12-18T07:27:08.545Z,1.20
2018-12-18T07:29:35.238Z,1.20
2018-12-18T07:32:01.938Z,1.20
2018-12-18T07:34:33.392Z,1.20
2018-12-18T07:36:57.353Z,1.30
2018-12-18T07:39:24.046Z,1.40
2018-12-18T07:41:50.752Z,1.50
2018-12-18T07:44:18.751Z,1.80
2018-12-18T07:46:45.455Z,2.10
2018-12-18T07:49:12.163Z,2.30
2018-12-18T07:51:38.865Z,2.40
2018-12-18T07:54:05.559Z,2.40
2018-12-18T07:56:32.266Z,2.00
2018-12-18T07:58:59.157Z,1.80
2018-12-18T08:01:25.983Z,1.60
2018-12-18T08:03:52.687Z,1.60
2018-12-18T08:06:19.381Z,1.60
2018-12-18T08:08:46.091Z,1.60
2018-12-18T08:11:12.783Z,1.70
2018-12-18T08:13:39.491Z,1.70
2018-12-18T08:16:06.186Z,1.80
2018-12-18T08:18:32.894Z,1.80
2018-12-18T08:20:59.587Z,1.90
2018-12-18T08:23:26.285Z,2.00
2018-12-18T08:25:52.970Z,2.00
2018-12-18T08:28:19.770Z,2.10
2018-12-18T08:30:46.467Z,2.30
2018-12-18T08:33:13.170Z,2.50
2018-12-18T08:35:39.858Z,2.40
2018-12-18T08:38:06.562Z,2.40
2018-12-18T08:40:33.259Z,2.40
2018-12-18T08:42:59.960Z,2.30
2018-12-18T08:45:26.662Z,2.40
2018-12-18T08:47:53.362Z,2.50
2018-12-18T08:50:20.089Z,3.00
2018-12-18T08:52:46.795Z,3.70
2018-12-18T08:55:13.490Z,4.90
2018-12-18T08:57:40.203Z,5.70
2018-12-18T09:00:07.494Z,6.20
2018-12-18T09:02:34.222Z,6.00
2018-12-18T09:05:00.938Z,5.10
2018-12-18T09:07:27.687Z,4.50
2018-12-18T09:09:54.374Z,4.60
2018-12-18T09:12:21.094Z,4.70
2018-12-18T09:14:53.431Z,4.70
2018-12-18T09:17:25.994Z,5.40
2018-12-18T09:19:52.807Z,6.80
2018-12-18T09:22:19.555Z,8.10
2018-12-18T09:24:46.246Z,8.70
2018-12-18T09:27:12.970Z,9.20
2018-12-18T09:29:40.588Z,9.80
2018-12-18T09:32:07.311Z,9.80
2018-12-18T09:34:34.007Z,10.10
2018-12-18T09:37:00.730Z,10.70
2018-12-18T09:39:33.302Z,10.60
2018-12-18T09:42:05.922Z,9.00
2018-12-18T09:44:33.023Z,7.80
2018-12-18T09:46:59.742Z,8.40
2018-12-18T09:49:26.431Z,9.70
2018-12-18T09:51:53.150Z,10.00
2018-12-18T09:54:19.882Z,9.80
2018-12-18T09:56:49.658Z,10.20
2018-12-18T09:59:16.381Z,10.80
2018-12-18T10:01:43.071Z,11.50
2018-12-18T10:04:09.795Z,11.60
2018-12-18T10:06:36.486Z,11.50
2018-12-18T10:09:09.569Z,11.10
2018-12-18T10:11:33.782Z,10.60
2018-12-18T10:14:00.498Z,10.50
2018-12-18T10:16:27.186Z,10.10
2018-12-18T10:18:53.902Z,10.30
2018-12-18T10:21:20.590Z,11.50
2018-12-18T10:23:47.307Z,12.10
2018-12-18T10:26:13.995Z,12.70
2018-12-18T10:28:40.711Z,13.00
2018-12-18T10:31:07.402Z,12.80
2018-12-18T10:33:34.118Z,13.00
2018-12-18T10:36:03.135Z,13.40
2018-12-18T10:38:29.590Z,13.70
2018-12-18T10:40:56.362Z,13.60
2018-12-18T10:43:23.078Z,13.40
2018-12-18T10:45:49.819Z,13.00
2018-12-18T10:48:16.810Z,12.60
2018-12-18T10:50:43.732Z,12.30
2018-12-18T10:53:10.446Z,12.60
2018-12-18T10:55:37.143Z,13.60
2018-12-18T10:58:03.862Z,14.40
2018-12-18T11:00:36.484Z,15.60
2018-12-18T11:03:03.203Z,16.60
2018-12-18T11:05:29.903Z,16.80
2018-12-18T11:07:56.623Z,17.30
2018-12-18T11:10:24.222Z,17.70
2018-12-18T11:12:56.822Z,18.30
2018-12-18T11:15:23.522Z,17.90
2018-12-18T11:17:50.237Z,17.20
2018-12-18T11:20:16.927Z,16.20
2018-12-18T11:22:43.614Z,16.50
2018-12-18T11:25:10.362Z,17.50
2018-12-18T11:27:37.754Z,18.00
2018-12-18T11:30:04.677Z,18.30
2018-12-18T11:32:33.102Z,18.30
2018-12-18T11:35:00.107Z,18.20
2018-12-18T11:37:26.799Z,18.20
2018-12-18T11:39:53.524Z,17.10
2018-12-18T11:42:20.226Z,16.10
2018-12-18T11:44:46.947Z,15.50
2018-12-18T11:47:13.645Z,15.30
2018-12-18T11:49:40.395Z,15.80
2018-12-18T11:52:07.155Z,15.80
2018-12-18T11:54:33.942Z,15.80
2018-12-18T11:57:00.639Z,15.60
2018-12-18T11:59:27.357Z,15.70
2018-12-18T12:01:54.154Z,15.50
2018-12-18T12:04:20.869Z,15.40
2018-12-18T12:06:47.966Z,15.20
2018-12-18T12:09:14.726Z,15.50
2018-12-18T12:11:41.422Z,15.40
2018-12-18T12:14:08.148Z,15.20
2018-12-18T12:16:34.845Z,14.80
2018-12-18T12:19:01.567Z,15.00
2018-12-18T12:21:28.262Z,15.20
2018-12-18T12:23:54.983Z,15.50
2018-12-18T12:26:27.707Z,15.60
2018-12-18T12:28:54.448Z,15.70
2018-12-18T12:31:21.147Z,15.10
2018-12-18T12:33:47.877Z,13.20
2018-12-18T12:36:14.566Z,12.30
2018-12-18T12:38:41.250Z,11.50
2018-12-18T12:41:07.978Z,11.30
2018-12-18T12:43:34.775Z,11.00
2018-12-18T12:46:01.493Z,11.20
2018-12-18T12:48:33.910Z,11.30
2018-12-18T12:51:00.659Z,11.30
2018-12-18T12:53:27.364Z,11.30
2018-12-18T12:55:54.141Z,10.80
2018-12-18T12:58:20.891Z,9.80
2018-12-18T13:00:47.907Z,9.90
2018-12-18T13:03:14.622Z,11.40
2018-12-18T13:05:41.342Z,12.50
2018-12-18T13:08:08.030Z,13.00
2018-12-18T13:10:34.755Z,13.00
2018-12-18T13:13:01.447Z,12.90
2018-12-18T13:15:28.171Z,13.20
2018-12-18T13:17:54.867Z,14.00
2018-12-18T13:20:21.633Z,14.40
2018-12-18T13:22:48.335Z,14.50
2018-12-18T13:25:15.659Z,14.10
2018-12-18T13:27:42.355Z,13.40
2018-12-18T13:30:09.286Z,13.10
2018-12-18T13:32:35.981Z,12.20
2018-12-18T13:35:02.706Z,11.20
2018-12-18T13:37:29.404Z,10.30
2018-12-18T13:39:56.118Z,9.90
2018-12-18T13:42:23.310Z,9.70
2018-12-18T13:44:50.026Z,9.90
2018-12-18T13:47:16.726Z,10.30
2018-12-18T13:49:43.447Z,10.70
2018-12-18T13:52:10.145Z,10.90
2018-12-18T13:54:37.678Z,11.00
2018-12-18T13:57:04.369Z,10.90
2018-12-18T13:59:31.202Z,11.00
2018-12-18T14:01:57.905Z,10.70
2018-12-18T14:04:24.604Z,9.50
2018-12-18T14:06:51.331Z,8.50
2018-12-18T14:09:18.030Z,7.60
2018-12-18T14:11:44.758Z,7.00
2018-12-18T14:14:11.450Z,6.60
2018-12-18T14:16:38.170Z,6.30
2018-12-18T14:19:04.858Z,6.20
2018-12-18T14:21:31.610Z,6.20
2018-12-18T14:23:58.307Z,6.00
2018-12-18T14:26:25.031Z,5.70
2018-12-18T14:28:51.726Z,5.50
2018-12-18T14:31:18.478Z,5.30
2018-12-18T14:33:45.175Z,5.10
2018-12-18T14:36:11.898Z,5.00
2018-12-18T14:38:38.595Z,4.80
2018-12-18T14:41:05.327Z,4.60
2018-12-18T14:43:32.035Z,4.50
2018-12-18T14:45:58.770Z,4.30
2018-12-18T14:48:25.473Z,4.20
2018-12-18T14:50:52.206Z,4.10
2018-12-18T14:53:18.915Z,4.00
2018-12-18T14:55:45.642Z,3.90
2018-12-18T14:58:12.338Z,3.80
2018-12-18T15:00:39.071Z,3.70
2018-12-18T15:03:05.798Z,3.60
2018-12-18T15:05:32.531Z,3.50
2018-12-18T15:07:59.229Z,3.40
2018-12-18T15:10:26.054Z,3.30
2018-12-18T15:12:52.750Z,3.30
2018-12-18T15:15:19.480Z,3.20
2018-12-18T15:17:46.176Z,3.10
2018-12-18T15:20:12.906Z,3.10
2018-12-18T15:22:39.663Z,3.10
2018-12-18T15:25:06.364Z,3.10
2018-12-18T15:27:33.086Z,3.10
2018-12-18T15:29:59.791Z,3.00
2018-12-18T15:32:26.735Z,3.00
2018-12-18T15:34:53.427Z,3.00
2018-12-18T15:37:20.158Z,2.90
2018-12-18T15:39:46.854Z,2.90
2018-12-18T15:42:13.974Z,2.90
2018-12-18T15:44:40.672Z,3.00
2018-12-18T15:47:07.394Z,3.00
2018-12-18T15:49:34.186Z,3.10
2018-12-18T15:52:00.911Z,3.10
2018-12-18T15:54:27.601Z,3.10
2018-12-18T15:56:54.323Z,3.10
2018-12-18T15:59:21.017Z,3.20
2018-12-18T16:01:47.735Z,3.30
2018-12-18T16:04:14.427Z,3.30
2018-12-18T16:06:41.146Z,3.40
2018-12-18T16:09:07.842Z,3.50
2018-12-18T16:11:34.558Z,3.60
2018-12-18T16:14:01.270Z,3.60
2018-12-18T16:16:28.110Z,3.60
2018-12-18T16:18:54.798Z,3.70
2018-12-18T16:21:21.542Z,3.70
2018-12-18T16:23:50.350Z,3.80
2018-12-18T16:26:17.068Z,3.80
2018-12-18T16:28:43.757Z,3.90
2018-12-18T16:31:10.482Z,3.90
2018-12-18T16:33:37.170Z,3.90
2018-12-18T16:36:03.887Z,3.80
2018-12-18T16:38:30.611Z,3.70
2018-12-18T16:40:57.303Z,3.60
2018-12-18T16:43:24.027Z,3.50
2018-12-18T16:45:50.726Z,3.40
2018-12-18T16:48:17.446Z,3.30
2018-12-18T16:50:44.139Z,3.20
2018-12-18T16:53:10.866Z,3.10
2018-12-18T16:55:37.557Z,3.00
2018-12-18T16:58:04.279Z,2.90
2018-12-18T17:00:30.970Z,2.80
2018-12-18T17:02:57.700Z,2.80
2018-12-18T17:05:24.398Z,2.80
2018-12-18T17:07:51.118Z,2.80
2018-12-18T17:10:17.824Z,2.70
2018-12-18T17:12:50.470Z,2.70
2018-12-18T17:15:17.162Z,2.60
2018-12-18T17:17:43.882Z,2.60
2018-12-18T17:20:10.571Z,2.60
2018-12-18T17:22:37.318Z,2.50
2018-12-18T17:25:04.027Z,2.40
2018-12-18T17:27:30.757Z,2.40
2018-12-18T17:29:57.484Z,2.30
2018-12-18T17:32:25.351Z,2.30
2018-12-18T17:34:52.263Z,2.30
2018-12-18T17:37:18.974Z,2.20
2018-12-18T17:39:52.673Z,2.20
2018-12-18T17:42:19.394Z,2.20
2018-12-18T17:44:52.954Z,2.10
2018-12-18T17:47:20.394Z,2.10
2018-12-18T17:49:47.106Z,2.00
2018-12-18T17:52:13.831Z,2.00
2018-12-18T17:54:40.522Z,2.00
2018-12-18T17:57:07.359Z,2.00
2018-12-18T17:59:34.095Z,2.00
2018-12-18T18:02:00.883Z,1.90
2018-12-18T18:04:27.607Z,1.80
2018-12-18T18:06:54.330Z,1.80
2018-12-18T18:09:28.027Z,1.70
2018-12-18T18:11:54.722Z,1.80
2018-12-18T18:14:21.442Z,1.80
2018-12-18T18:16:48.135Z,1.80
2018-12-18T18:19:14.859Z,1.70
2018-12-18T18:21:41.550Z,1.70
2018-12-18T18:24:08.269Z,1.70
2018-12-18T18:26:41.991Z,1.60
2018-12-18T18:29:08.707Z,1.60
2018-12-18T18:31:35.394Z,1.60
2018-12-18T18:34:02.615Z,1.60
2018-12-18T18:36:29.315Z,1.60
2018-12-18T18:38:56.026Z,1.50
2018-12-18T18:41:22.723Z,1.50
2018-12-18T18:43:49.438Z,1.40
2018-12-18T18:46:16.130Z,1.40
2018-12-18T18:48:42.858Z,1.40
2018-12-18T18:51:09.553Z,1.40
2018-12-18T18:53:36.277Z,1.40
2018-12-18T18:56:03.087Z,1.40
2018-12-18T18:58:29.802Z,1.40
2018-12-18T19:00:56.615Z,1.30
2018-12-18T19:03:23.334Z,1.30
2018-12-18T19:05:50.053Z,1.30
2018-12-18T19:08:16.776Z,1.30
2018-12-18T19:10:43.478Z,1.30
2018-12-18T19:13:10.199Z,1.30
2018-12-18T19:15:36.890Z,1.20
2018-12-18T19:18:03.618Z,1.20
2018-12-18T19:20:30.314Z,1.20
2018-12-18T19:22:57.030Z,1.10
2018-12-18T19:25:23.723Z,1.20
2018-12-18T19:27:50.449Z,1.20
2018-12-18T19:30:17.138Z,1.20
2018-12-18T19:32:43.832Z,1.20
2018-12-18T19:35:10.560Z,1.20
2018-12-18T19:37:37.272Z,1.20
2018-12-18T19:40:04.187Z,1.20
2018-12-18T19:42:30.987Z,1.20
2018-12-18T19:44:57.714Z,1.10
2018-12-18T19:47:24.422Z,1.10
2018-12-18T19:49:51.138Z,1.00
2018-12-18T19:52:17.831Z,1.00
2018-12-18T19:54:44.546Z,1.00
2018-12-18T19:57:11.263Z,0.90
2018-12-18T19:59:38.027Z,0.90
2018-12-18T20:02:04.764Z,0.90
2018-12-18T20:04:31.514Z,1.00
2018-12-18T20:06:58.214Z,1.00
2018-12-18T20:09:25.135Z,1.10
2018-12-18T20:11:51.825Z,1.10
2018-12-18T20:14:18.537Z,1.20
2018-12-18T20:16:45.226Z,1.20
2018-12-18T20:19:11.946Z,1.20
2018-12-18T20:21:38.663Z,1.20
2018-12-18T20:24:05.380Z,1.10
2018-12-18T20:26:32.067Z,1.00
2018-12-18T20:28:58.791Z,1.00
2018-12-18T20:31:25.485Z,0.90
2018-12-18T20:33:52.239Z,0.80
2018-12-18T20:36:18.943Z,0.70
2018-12-18T20:38:45.662Z,0.70
2018-12-18T20:41:12.557Z,0.60
2018-12-18T20:43:39.270Z,0.50
2018-12-18T20:46:05.966Z,0.50
2018-12-18T20:48:32.690Z,0.50
2018-12-18T20:50:59.379Z,0.50
2018-12-18T20:53:26.076Z,0.50
2018-12-18T20:55:52.798Z,0.50
2018-12-18T20:58:19.525Z,0.50
2018-12-18T21:00:46.247Z,0.50
2018-12-18T21:03:12.938Z,0.50
2018-12-18T21:05:39.763Z,0.60
2018-12-18T21:08:06.787Z,0.50
2018-12-18T21:10:33.711Z,0.60
2018-12-18T21:13:06.358Z,0.60
2018-12-18T21:15:33.278Z,0.60
2018-12-18T21:18:00.174Z,0.70
2018-12-18T21:20:28.225Z,0.70
2018-12-18T21:22:55.118Z,0.60
2018-12-18T21:25:22.042Z,0.60
2018-12-18T21:27:48.947Z,0.60
2018-12-18T21:30:15.872Z,0.60
2018-12-18T21:32:42.802Z,0.50
2018-12-18T21:35:09.730Z,0.50
2018-12-18T21:37:36.635Z,0.40
2018-12-18T21:40:03.726Z,0.40
2018-12-18T21:42:30.622Z,0.40
2018-12-18T21:44:57.774Z,0.30
2018-12-18T21:47:24.771Z,0.30
2018-12-18T21:49:51.814Z,0.30
2018-12-18T21:52:18.707Z,0.30
2018-12-18T21:54:45.639Z,0.30
2018-12-18T21:57:12.533Z,0.20
2018-12-18T21:59:39.463Z,0.20
2018-12-18T22:02:06.359Z,0.20
2018-12-18T22:04:33.282Z,0.20
2018-12-18T22:07:00.169Z,0.20
2018-12-18T22:09:27.088Z,0.20
2018-12-18T22:11:53.982Z,0.20
2018-12-18T22:14:20.921Z,0.20
2018-12-18T22:16:47.818Z,0.20
2018-12-18T22:19:14.755Z,0.30
2018-12-18T22:21:48.599Z,0.30
2018-12-18T22:24:15.537Z,0.40
2018-12-18T22:26:42.259Z,0.40
2018-12-18T22:29:08.995Z,0.50
2018-12-18T22:31:35.722Z,0.50
2018-12-18T22:34:02.459Z,0.50
2018-12-18T22:36:29.159Z,0.60
2018-12-18T22:38:55.865Z,0.60
2018-12-18T22:41:22.591Z,0.60
2018-12-18T22:43:49.328Z,0.60
2018-12-18T22:46:16.135Z,0.50
2018-12-18T22:48:42.838Z,0.50
2018-12-18T22:51:09.573Z,0.40
2018-12-18T22:53:36.267Z,0.40
2018-12-18T22:56:02.994Z,0.40
2018-12-18T22:58:29.687Z,0.40
2018-12-18T23:01:01.295Z,0.30
2018-12-18T23:03:27.994Z,0.30
2018-12-18T23:05:54.728Z,0.20
2018-12-18T23:08:21.422Z,0.20
2018-12-18T23:10:48.150Z,0.30
2018-12-18T23:13:19.512Z,0.40
2018-12-18T23:15:46.238Z,0.50
2018-12-18T23:18:12.938Z,0.50
2018-12-18T23:20:39.659Z,0.50
2018-12-18T23:23:06.358Z,0.50
2018-12-18T23:25:33.103Z,0.60
2018-12-18T23:27:59.804Z,0.60
2018-12-18T23:30:26.536Z,0.60
2018-12-18T23:32:53.251Z,0.60
2018-12-18T23:35:20.026Z,0.60
2018-12-18T23:37:46.731Z,0.60
2018-12-18T23:40:13.458Z,0.60
2018-12-18T23:42:40.169Z,0.50
2018-12-18T23:45:06.899Z,0.50
2018-12-18T23:47:33.603Z,0.40
2018-12-18T23:50:00.336Z,0.30
2018-12-18T23:52:27.158Z,0.30
2018-12-18T23:54:53.882Z,0.20
2018-12-18T23:57:20.704Z,0.20
2018-12-18T23:59:47.426Z,0.20
